Time;durP1;ratioP1;P1;durP2;ratioP2;P2;SDS_P1;SDS_P2;PMS_P1;PMS_P2;Temp;Humidity;BMP_temperature;BMP_pressure;BME280_temperature;BME280_humidity;BME280_pressure;Samples;Min_cycle;Max_cycle;Signal;HPM_P1;HPM_P2
2021/07/17 00:02:24;;;;;;;28.77;15.60;;;;;;;19.20;59.69;100565.41;10403961;28;20121;-58
2021/07/17 00:07:27;;;;;;;30.08;15.82;;;;;;;19.14;59.95;100567.72;10404568;28;20111;-58
2021/07/17 00:12:29;;;;;;;32.60;15.90;;;;;;;19.11;60.20;100563.56;10404091;28;20053;-58
2021/07/17 00:17:30;;;;;;;27.38;15.55;;;;;;;19.10;60.21;100566.31;10402607;28;20085;-59
2021/07/17 00:22:32;;;;;;;27.70;15.70;;;;;;;19.10;59.83;100561.84;10403067;28;20132;-58
2021/07/17 00:27:34;;;;;;;26.75;16.15;;;;;;;19.04;59.74;100574.78;10402960;28;20457;-58
2021/07/17 00:32:36;;;;;;;28.70;16.27;;;;;;;19.04;60.31;100572.13;10403832;28;20053;-58
2021/07/17 00:37:38;;;;;;;28.55;16.33;;;;;;;19.05;59.91;100568.53;10403192;28;20498;-59
2021/07/17 00:42:43;;;;;;;29.17;16.70;;;;;;;19.09;59.78;100568.13;10408181;28;20192;-58
2021/07/17 00:47:45;;;;;;;31.00;15.57;;;;;;;19.17;60.06;100560.38;10411624;28;20137;-58
2021/07/17 00:52:47;;;;;;;25.92;15.82;;;;;;;19.15;60.18;100557.00;10411339;28;20137;-58
2021/07/17 00:57:51;;;;;;;27.63;16.35;;;;;;;19.11;59.94;100563.56;10411248;28;20077;-58
2021/07/17 01:02:58;;;;;;;31.90;15.70;;;;;;;19.15;59.77;100553.50;10411188;28;20057;-58
2021/07/17 01:08:00;;;;;;;33.33;16.42;;;;;;;19.01;60.30;100551.16;10410902;28;20107;-59
2021/07/17 01:13:02;;;;;;;35.70;16.85;;;;;;;18.95;60.48;100557.81;10409361;28;20132;-59
2021/07/17 01:18:05;;;;;;;28.42;16.38;;;;;;;19.01;60.39;100557.28;10410028;28;20041;-58
2021/07/17 01:23:08;;;;;;;30.95;16.90;;;;;;;19.08;60.17;100561.13;10410134;28;20132;-59
2021/07/17 01:28:09;;;;;;;29.73;15.98;;;;;;;19.06;60.18;100554.28;10409533;28;20057;-59
2021/07/17 01:33:11;;;;;;;34.35;16.80;;;;;;;18.96;60.36;100561.31;10409884;28;20140;-59
2021/07/17 01:38:13;;;;;;;29.63;16.20;;;;;;;18.96;60.45;100563.94;10408584;28;20569;-59
2021/07/17 01:43:15;;;;;;;28.50;15.63;;;;;;;18.99;60.55;100553.91;10409239;28;20041;-59
2021/07/17 01:48:16;;;;;;;29.60;15.90;;;;;;;19.03;60.65;100562.50;10409023;28;20132;-58
2021/07/17 01:53:19;;;;;;;29.90;16.83;;;;;;;18.92;61.14;100558.06;10408874;28;20124;-58
2021/07/17 01:58:20;;;;;;;30.30;15.85;;;;;;;18.95;60.97;100549.03;10408864;28;20080;-58
2021/07/17 02:03:22;;;;;;;30.08;15.80;;;;;;;18.90;60.74;100551.22;10412913;28;20045;-58
2021/07/17 02:08:24;;;;;;;30.23;15.52;;;;;;;18.90;61.37;100538.81;10415893;28;20531;-58
2021/07/17 02:13:26;;;;;;;27.30;14.77;;;;;;;18.91;61.10;100537.81;10430715;28;20137;-58
2021/07/17 02:18:32;;;;;;;31.20;15.25;;;;;;;18.93;60.87;100527.94;10413804;28;20080;-58
2021/07/17 02:23:37;;;;;;;30.00;15.07;;;;;;;18.95;60.95;100511.94;10415234;28;20073;-58
2021/07/17 02:28:39;;;;;;;33.15;14.43;;;;;;;18.86;60.85;100525.94;10414655;28;20560;-58
2021/07/17 02:33:41;;;;;;;29.58;14.95;;;;;;;18.93;61.04;100521.81;10414621;28;20141;-58
2021/07/17 02:38:43;;;;;;;30.40;14.82;;;;;;;18.89;60.65;100521.22;10413560;28;20072;-58
2021/07/17 02:43:45;;;;;;;28.50;14.43;;;;;;;18.80;60.96;100506.13;10414505;28;20536;-58
2021/07/17 02:48:46;;;;;;;28.55;14.98;;;;;;;18.82;60.62;100504.16;10374871;28;20052;-58
2021/07/17 02:53:48;;;;;;;30.20;14.73;;;;;;;18.83;60.83;100508.47;10413673;28;20128;-58
2021/07/17 02:58:50;;;;;;;23.10;14.02;;;;;;;18.82;61.08;100514.78;10412850;28;20080;-58
2021/07/17 03:03:51;;;;;;;29.13;15.18;;;;;;;18.79;61.05;100509.72;10409182;28;20053;-58
2021/07/17 03:08:53;;;;;;;23.13;12.75;;;;;;;18.72;61.00;100513.03;10406709;28;20081;-59
2021/07/17 03:13:55;;;;;;;26.67;11.95;;;;;;;18.70;61.29;100510.50;10405617;28;20132;-59
2021/07/17 03:18:58;;;;;;;25.10;11.95;;;;;;;18.58;60.82;100507.06;10405696;28;20044;-58
2021/07/17 03:24:00;;;;;;;20.23;10.45;;;;;;;18.54;60.87;100505.63;10421385;28;20128;-59
2021/07/17 03:29:02;;;;;;;22.08;10.50;;;;;;;18.56;60.69;100503.69;10405007;28;20457;-58
2021/07/17 03:34:05;;;;;;;19.88;9.70;;;;;;;18.52;60.85;100501.47;10405071;28;20132;-59
2021/07/17 03:39:06;;;;;;;19.13;10.77;;;;;;;18.64;61.21;100511.88;10404786;28;20458;-59
2021/07/17 03:44:08;;;;;;;19.20;10.27;;;;;;;18.44;60.74;100509.22;10405603;28;20045;-59
2021/07/17 03:49:10;;;;;;;15.85;8.70;;;;;;;18.46;60.85;100516.03;10404079;28;20159;-58
2021/07/17 03:54:12;;;;;;;12.77;8.18;;;;;;;18.39;60.77;100516.69;10403818;28;20476;-58
2021/07/17 03:59:13;;;;;;;15.35;8.85;;;;;;;18.47;60.71;100519.53;10402970;28;20504;-59
2021/07/17 04:04:15;;;;;;;15.65;8.73;;;;;;;18.40;60.60;100528.97;10419188;28;20141;-58
2021/07/17 04:09:17;;;;;;;15.18;8.60;;;;;;;18.49;60.80;100521.09;10404438;28;20049;-58
2021/07/17 04:14:18;;;;;;;18.45;8.80;;;;;;;18.42;60.96;100517.25;10403808;28;20037;-58
2021/07/17 04:19:20;;;;;;;18.17;9.35;;;;;;;18.51;60.34;100526.25;10402429;28;20585;-58
2021/07/17 04:24:22;;;;;;;18.75;9.52;;;;;;;18.53;60.10;100535.75;10403198;28;20140;-59
2021/07/17 04:29:23;;;;;;;24.92;10.35;;;;;;;18.55;60.38;100530.31;10403755;28;20050;-58
2021/07/17 04:34:25;;;;;;;22.80;9.68;;;;;;;18.59;60.42;100518.50;10403628;28;20099;-59
2021/07/17 04:39:27;;;;;;;18.50;10.05;;;;;;;18.59;60.37;100526.44;10403038;28;20055;-59
2021/07/17 04:44:29;;;;;;;21.70;9.88;;;;;;;18.52;60.43;100527.94;10403146;28;20372;-58
2021/07/17 04:49:30;;;;;;;19.65;8.85;;;;;;;18.63;60.32;100518.13;10403295;28;20092;-58
2021/07/17 04:54:32;;;;;;;19.80;10.18;;;;;;;18.56;60.65;100530.19;10402978;28;20050;-58
2021/07/17 04:59:34;;;;;;;23.45;10.27;;;;;;;18.58;60.41;100530.09;10403620;28;20498;-58
2021/07/17 05:04:36;;;;;;;18.63;9.73;;;;;;;18.61;60.39;100527.16;10402495;28;20128;-58
2021/07/17 05:09:37;;;;;;;18.67;9.45;;;;;;;18.67;59.86;100524.84;10401802;28;20049;-58
2021/07/17 05:14:39;;;;;;;16.17;8.57;;;;;;;18.61;60.05;100519.22;10402141;28;20128;-58
2021/07/17 05:19:41;;;;;;;18.13;8.50;;;;;;;18.58;59.97;100522.97;10402161;28;20445;-58
2021/07/17 05:24:43;;;;;;;16.90;8.70;;;;;;;18.63;60.11;100525.22;10402346;28;20136;-58
2021/07/17 05:29:46;;;;;;;17.42;8.65;;;;;;;18.70;59.93;100522.91;10407708;28;20494;-58
2021/07/17 05:34:48;;;;;;;13.60;7.80;;;;;;;18.83;59.71;100515.63;10410239;28;20474;-59
2021/07/17 05:39:49;;;;;;;15.85;8.52;;;;;;;19.04;58.88;100519.97;10410007;28;20550;-58
2021/07/17 05:44:51;;;;;;;16.08;8.10;;;;;;;19.44;58.49;100520.00;10409205;28;20047;-59
2021/07/17 05:49:53;;;;;;;21.20;9.73;;;;;;;19.63;57.87;100521.88;10409478;28;20049;-59
2021/07/17 05:54:55;;;;;;;19.17;10.13;;;;;;;19.81;57.27;100531.75;10408533;28;20466;-59
2021/07/17 05:59:56;;;;;;;23.25;11.75;;;;;;;19.78;57.21;100533.81;10408899;28;20091;-59
2021/07/17 06:04:58;;;;;;;24.17;11.25;;;;;;;19.68;57.86;100532.94;10424132;28;20533;-59
2021/07/17 06:10:00;;;;;;;27.83;14.05;;;;;;;19.57;57.73;100538.34;10406803;28;20041;-59
2021/07/17 06:15:03;;;;;;;30.38;14.10;;;;;;;19.39;58.31;100543.44;10408127;28;20074;-58
2021/07/17 06:20:05;;;;;;;28.08;14.13;;;;;;;19.61;58.32;100545.91;10407689;28;20041;-58
2021/07/17 06:25:08;;;;;;;30.33;14.23;;;;;;;19.82;57.85;100543.22;10406776;28;20136;-59
2021/07/17 06:30:10;;;;;;;27.67;14.10;;;;;;;19.81;57.86;100542.38;10407120;28;20532;-58
2021/07/17 06:35:12;;;;;;;26.95;14.10;;;;;;;19.95;57.71;100541.97;10406767;28;20553;-58
2021/07/17 06:40:16;;;;;;;25.30;14.30;;;;;;;19.91;57.69;100545.88;10407386;28;20046;-58
2021/07/17 06:45:19;;;;;;;32.50;15.93;;;;;;;19.89;57.68;100554.94;10406643;28;20468;-59
2021/07/17 06:50:22;;;;;;;36.75;15.88;;;;;;;19.83;58.30;100553.69;10406440;28;20209;-58
2021/07/17 06:55:23;;;;;;;34.08;15.63;;;;;;;19.90;58.21;100552.19;10406175;28;20153;-59
2021/07/17 07:00:25;;;;;;;41.20;16.98;;;;;;;19.90;57.91;100551.34;10406521;28;20053;-58
2021/07/17 07:05:27;;;;;;;29.50;15.55;;;;;;;19.96;57.49;100562.25;10404412;28;20120;-58
2021/07/17 07:10:28;;;;;;;30.60;15.98;;;;;;;19.99;57.86;100561.16;10405588;28;20573;-59
2021/07/17 07:15:30;;;;;;;34.80;15.40;;;;;;;20.09;57.70;100557.50;10405902;28;20045;-58
2021/07/17 07:20:33;;;;;;;30.15;14.48;;;;;;;20.04;57.67;100566.88;10405738;28;20056;-58
2021/07/17 07:25:35;;;;;;;23.27;13.98;;;;;;;20.17;57.45;100559.50;10420302;28;20561;-58
2021/07/17 07:30:37;;;;;;;25.92;13.77;;;;;;;20.38;56.89;100570.84;10404615;28;20057;-59
2021/07/17 07:35:38;;;;;;;25.98;13.65;;;;;;;20.62;56.26;100565.97;10406002;28;20152;-58
2021/07/17 07:40:40;;;;;;;25.55;13.20;;;;;;;20.90;55.86;100566.94;10404529;28;20129;-59
2021/07/17 07:45:42;;;;;;;26.45;12.93;;;;;;;21.18;55.16;100555.41;10404200;28;20128;-59
2021/07/17 07:50:45;;;;;;;28.27;13.50;;;;;;;21.07;54.84;100567.03;10403355;28;20521;-59
2021/07/17 07:55:46;;;;;;;25.30;12.00;;;;;;;21.46;54.10;100556.31;10404205;28;20116;-59
2021/07/17 08:00:48;;;;;;;28.95;12.27;;;;;;;21.92;52.98;100558.91;10403565;28;20558;-59
2021/07/17 08:05:50;;;;;;;19.45;11.38;;;;;;;22.26;51.98;100551.16;10402572;28;20482;-58
2021/07/17 08:10:51;;;;;;;23.98;11.10;;;;;;;22.28;51.71;100559.81;10404169;28;20213;-59
2021/07/17 08:15:54;;;;;;;19.65;10.63;;;;;;;22.40;51.28;100562.13;10403051;28;20046;-59
2021/07/17 08:20:57;;;;;;;20.27;10.13;;;;;;;22.42;51.72;100557.47;10402646;28;20085;-60
2021/07/17 08:25:59;;;;;;;17.67;9.65;;;;;;;22.67;51.13;100551.38;10403328;28;20045;-60
2021/07/17 08:31:00;;;;;;;18.27;9.52;;;;;;;23.10;49.70;100555.91;10399189;28;20453;-60
2021/07/17 08:36:03;;;;;;;17.92;9.40;;;;;;;23.85;48.46;100548.97;10397590;28;20471;-60
2021/07/17 08:41:10;;;;;;;19.02;9.43;;;;;;;25.30;44.50;100552.63;10423251;28;20127;-60
2021/07/17 08:46:11;;;;;;;21.35;9.55;;;;;;;25.04;44.98;100550.16;10406682;28;20045;-60
2021/07/17 08:51:14;;;;;;;16.38;8.90;;;;;;;24.66;45.72;100541.94;10423164;28;20056;-59
2021/07/17 08:56:16;;;;;;;18.38;9.25;;;;;;;24.38;46.73;100544.13;10396266;28;20112;-60
2021/07/17 09:01:18;;;;;;;17.65;9.00;;;;;;;24.45;46.40;100536.28;10397677;28;20045;-60
2021/07/17 09:06:20;;;;;;;16.73;8.00;;;;;;;24.82;45.48;100534.78;10406689;28;20532;-60
2021/07/17 09:11:42;;;;;;;16.58;8.93;;;;;;;25.62;42.79;100528.44;10407472;28;20160;-60
2021/07/17 09:16:44;;;;;;;15.18;8.52;;;;;;;26.61;41.45;100525.84;10407427;28;20045;-60
2021/07/17 09:21:46;;;;;;;15.45;7.20;;;;;;;27.11;40.57;100519.84;10406819;28;20076;-60
2021/07/17 09:26:54;;;;;;;13.73;6.72;;;;;;;27.76;39.36;100517.28;10403516;28;20057;-60
2021/07/17 09:31:56;;;;;;;12.70;7.05;;;;;;;27.04;39.73;100517.06;10406403;28;20049;-60
2021/07/17 09:37:12;;;;;;;15.30;7.13;;;;;;;26.49;40.31;100509.31;10419686;28;20124;-61
2021/07/17 09:42:18;;;;;;;14.00;7.00;;;;;;;26.99;40.18;100506.06;10407422;28;20056;-61
2021/07/17 09:47:23;;;;;;;12.85;6.63;;;;;;;27.56;38.91;100495.50;10406504;28;20084;-61
2021/07/17 09:52:25;;;;;;;12.57;6.43;;;;;;;27.69;38.36;100492.16;10406655;28;20053;-61
2021/07/17 09:57:30;;;;;;;14.15;6.13;;;;;;;27.72;38.52;100489.97;10406888;28;20077;-61
2021/07/17 10:02:36;;;;;;;15.00;6.70;;;;;;;27.97;38.14;100474.31;10420079;28;20137;-61
2021/07/17 10:07:38;;;;;;;15.82;5.85;;;;;;;28.15;37.75;100474.72;10411249;28;20049;-61
2021/07/17 10:12:43;;;;;;;12.68;6.18;;;;;;;28.05;37.87;100490.34;10409229;28;20053;-61
2021/07/17 10:17:45;;;;;;;15.38;6.88;;;;;;;28.15;37.62;100490.84;10402017;28;20129;-61
2021/07/17 10:22:47;;;;;;;17.38;6.30;;;;;;;28.33;37.67;100485.03;10405064;28;20165;-61
2021/07/17 10:27:49;;;;;;;15.30;6.00;;;;;;;28.35;37.89;100485.69;10403280;28;20136;-61
2021/07/17 10:32:51;;;;;;;11.50;5.60;;;;;;;28.68;37.01;100482.25;10404146;28;20160;-61
2021/07/17 10:37:57;;;;;;;14.73;6.32;;;;;;;29.01;36.81;100472.56;10402603;28;20045;-61
2021/07/17 10:43:00;;;;;;;11.85;5.68;;;;;;;28.85;37.35;100461.25;10404104;28;20112;-61
2021/07/17 10:48:03;;;;;;;13.73;6.10;;;;;;;28.49;37.57;100464.09;10403575;28;20203;-61
2021/07/17 10:53:05;;;;;;;17.90;6.57;;;;;;;28.59;37.68;100467.28;10403645;28;20060;-61
2021/07/17 10:58:13;;;;;;;13.02;6.28;;;;;;;28.27;38.06;100462.41;10403219;28;20043;-61
2021/07/17 11:03:24;;;;;;;14.35;6.57;;;;;;;28.08;38.59;100455.81;10421346;28;20133;-61
2021/07/17 11:08:36;;;;;;;14.48;6.53;;;;;;;28.02;39.20;100459.28;10404187;28;20041;-61
2021/07/17 11:13:38;;;;;;;13.85;7.10;;;;;;;28.02;39.17;100451.19;10414201;28;20074;-61
2021/07/17 11:18:40;;;;;;;15.23;7.28;;;;;;;27.68;39.64;100450.16;10380296;28;20049;-61
2021/07/17 11:23:43;;;;;;;13.93;7.35;;;;;;;27.81;39.84;100456.53;10398486;28;20152;-61
2021/07/17 11:28:47;;;;;;;13.85;7.82;;;;;;;27.86;39.84;100451.44;10401087;28;20417;-61
2021/07/17 11:34:09;;;;;;;18.38;8.15;;;;;;;27.45;40.62;100459.22;10429242;28;20140;-61
2021/07/17 11:39:14;;;;;;;19.08;8.70;;;;;;;27.26;40.95;100457.09;10383798;28;20120;-61
2021/07/17 11:44:16;;;;;;;15.77;8.38;;;;;;;27.11;41.82;100458.09;10409651;28;20128;-61
2021/07/17 11:49:18;;;;;;;15.73;7.95;;;;;;;26.88;41.98;100451.97;10366016;28;20069;-61
2021/07/17 11:54:40;;;;;;;18.92;7.85;;;;;;;26.93;42.65;100450.41;10383206;28;20594;-61
2021/07/17 11:59:45;;;;;;;16.88;8.65;;;;;;;26.73;42.49;100446.56;10394226;28;20046;-62
2021/07/17 12:04:55;;;;;;;16.38;7.75;;;;;;;26.98;42.32;100439.94;10404322;28;20128;-61
2021/07/17 12:10:00;;;;;;;18.58;8.20;;;;;;;26.55;43.28;100440.69;10404199;28;20513;-61
2021/07/17 12:15:22;;;;;;;17.17;8.13;;;;;;;26.77;42.79;100444.38;10403428;28;20120;-61
2021/07/17 12:20:35;;;;;;;19.40;8.55;;;;;;;26.51;42.78;100442.91;10387828;28;20056;-61
2021/07/17 12:25:44;;;;;;;17.20;8.77;;;;;;;26.61;43.02;100448.88;10417999;28;20096;-61
2021/07/17 12:30:56;;;;;;;22.57;9.00;;;;;;;26.83;42.79;100446.31;10402857;28;20453;-61
2021/07/17 12:36:17;;;;;;;20.98;9.23;;;;;;;26.71;42.74;100437.88;10406616;28;20128;-61
2021/07/17 12:41:36;;;;;;;21.20;9.23;;;;;;;26.77;42.63;100439.84;10431224;28;20075;-61
2021/07/17 12:46:40;;;;;;;19.35;9.27;;;;;;;26.66;43.38;100438.44;10416813;28;20536;-61
2021/07/17 12:51:43;;;;;;;19.38;10.38;;;;;;;26.25;43.42;100450.50;10416645;28;20045;-61
2021/07/17 12:56:52;;;;;;;17.23;9.60;;;;;;;26.09;44.95;100447.97;10415624;28;20522;-61
2021/07/17 13:01:57;;;;;;;17.83;9.88;;;;;;;26.17;44.45;100449.75;10416841;28;20120;-61
2021/07/17 13:07:07;;;;;;;22.38;10.55;;;;;;;25.86;44.45;100439.03;10416517;28;20076;-61
2021/07/17 13:12:11;;;;;;;18.88;10.07;;;;;;;25.72;45.46;100426.41;10415570;28;20056;-61
2021/07/17 13:17:15;;;;;;;18.52;9.65;;;;;;;26.09;45.08;100431.88;10411776;28;20125;-61
2021/07/17 13:22:18;;;;;;;20.17;9.80;;;;;;;26.18;45.18;100421.94;10393105;28;20077;-61
2021/07/17 13:27:29;;;;;;;19.92;9.48;;;;;;;26.07;45.30;100427.69;10421501;28;20449;-60
2021/07/17 13:32:38;;;;;;;17.67;10.05;;;;;;;26.28;44.94;100422.50;10402475;28;20080;-61
2021/07/17 13:37:40;;;;;;;17.25;9.65;;;;;;;26.40;44.76;100415.69;10413842;28;20088;-61
2021/07/17 13:42:47;;;;;;;18.48;9.98;;;;;;;26.59;44.68;100421.41;10392808;28;20045;-61
2021/07/17 13:47:50;;;;;;;18.75;9.43;;;;;;;26.70;44.51;100420.13;10425584;28;20164;-61
2021/07/17 13:52:57;;;;;;;17.42;10.00;;;;;;;26.87;43.91;100408.22;10423633;28;20049;-61
2021/07/17 13:58:05;;;;;;;18.20;9.40;;;;;;;26.89;44.04;100416.06;10412561;28;20132;-61
2021/07/17 14:03:08;;;;;;;16.93;8.97;;;;;;;27.01;43.74;100396.63;10417371;28;20085;-61
2021/07/17 14:08:11;;;;;;;18.08;10.52;;;;;;;27.17;43.21;100399.16;10417649;28;20072;-61
2021/07/17 14:13:13;;;;;;;18.33;10.15;;;;;;;27.04;43.28;100396.25;10444964;28;20135;-61
2021/07/17 14:18:15;;;;;;;18.55;9.73;;;;;;;26.89;43.78;100387.38;10433896;28;20084;-61
2021/07/17 14:23:17;;;;;;;16.27;9.98;;;;;;;26.82;43.68;100391.81;10417381;28;20125;-61
2021/07/17 14:28:20;;;;;;;15.20;9.65;;;;;;;26.72;43.96;100391.25;10407629;28;20056;-62
2021/07/17 14:33:23;;;;;;;18.45;9.70;;;;;;;26.90;44.38;100382.81;10426164;28;20154;-61
2021/07/17 14:38:24;;;;;;;18.30;10.02;;;;;;;26.85;43.82;100377.19;10417419;28;20076;-61
2021/07/17 14:43:27;;;;;;;13.85;9.43;;;;;;;26.81;44.19;100371.38;10432697;28;20053;-61
2021/07/17 14:48:29;;;;;;;14.80;9.63;;;;;;;26.81;44.12;100370.53;10415237;28;20132;-61
2021/07/17 14:53:31;;;;;;;13.55;8.75;;;;;;;26.71;44.64;100364.63;10405348;28;20045;-61
2021/07/17 14:58:33;;;;;;;13.13;9.15;;;;;;;26.86;44.33;100368.94;10404224;28;20477;-61
2021/07/17 15:03:35;;;;;;;13.65;8.38;;;;;;;26.66;44.85;100375.91;10391399;28;20081;-61
2021/07/17 15:08:36;;;;;;;16.02;8.00;;;;;;;26.47;45.24;100369.19;10373569;28;20045;-61
2021/07/17 15:13:41;;;;;;;11.48;7.65;;;;;;;26.31;45.57;100379.22;10417535;28;20072;-61
2021/07/17 15:18:43;;;;;;;12.55;8.05;;;;;;;26.35;45.51;100375.16;10399489;28;20375;-61
2021/07/17 15:23:45;;;;;;;13.30;7.53;;;;;;;26.28;45.51;100382.28;10414534;28;20161;-61
2021/07/17 15:28:47;;;;;;;15.25;8.00;;;;;;;26.19;45.73;100380.69;10390833;28;20528;-61
2021/07/17 15:33:48;;;;;;;9.57;6.70;;;;;;;26.22;45.76;100385.69;10387223;28;20137;-61
2021/07/17 15:38:50;;;;;;;15.10;7.45;;;;;;;26.08;44.99;100389.97;10378754;28;20052;-61
2021/07/17 15:43:52;;;;;;;12.15;7.05;;;;;;;26.15;45.28;100384.75;10383992;28;20076;-61
2021/07/17 15:48:53;;;;;;;12.13;6.70;;;;;;;26.48;44.98;100375.38;10385661;28;20136;-61
2021/07/17 15:53:55;;;;;;;11.55;6.40;;;;;;;26.53;44.25;100371.13;10392998;28;20494;-61
2021/07/17 15:58:57;;;;;;;13.20;6.88;;;;;;;26.35;44.22;100370.66;10394695;28;20133;-61
2021/07/17 16:03:58;;;;;;;14.00;6.15;;;;;;;26.47;44.14;100376.38;10379860;28;20690;-61
2021/07/17 16:09:01;;;;;;;10.43;6.18;;;;;;;26.42;44.51;100378.81;10394762;28;20053;-61
2021/07/17 16:14:03;;;;;;;10.75;6.13;;;;;;;26.52;44.16;100374.00;10398178;28;20049;-61
2021/07/17 16:19:05;;;;;;;12.07;5.93;;;;;;;26.48;43.31;100370.03;10400295;28;20520;-61
2021/07/17 16:24:07;;;;;;;10.80;6.00;;;;;;;26.43;44.38;100367.03;10401165;28;20494;-61
2021/07/17 16:29:09;;;;;;;13.48;6.93;;;;;;;26.66;44.36;100357.09;10402011;28;20132;-61
2021/07/17 16:34:11;;;;;;;10.05;6.32;;;;;;;26.55;43.76;100360.19;10401036;28;20145;-60
2021/07/17 16:39:13;;;;;;;12.10;5.88;;;;;;;26.54;43.86;100355.88;10399338;28;20045;-62
2021/07/17 16:44:15;;;;;;;9.93;5.47;;;;;;;26.44;43.79;100358.00;10400771;28;20488;-61
2021/07/17 16:49:17;;;;;;;11.65;5.70;;;;;;;26.35;44.03;100351.03;10398700;28;20140;-61
2021/07/17 16:54:20;;;;;;;13.68;6.25;;;;;;;26.36;44.73;100358.06;10402732;28;20081;-61
2021/07/17 16:59:23;;;;;;;11.93;6.00;;;;;;;26.53;45.00;100360.41;10401375;28;20132;-61
2021/07/17 17:04:25;;;;;;;11.82;5.47;;;;;;;26.49;45.82;100358.25;10401797;28;20140;-61
2021/07/17 17:09:27;;;;;;;10.95;5.32;;;;;;;26.59;44.43;100358.84;10402692;28;20136;-61
2021/07/17 17:14:29;;;;;;;12.93;5.20;;;;;;;26.45;44.11;100359.63;10402523;28;20056;-61
2021/07/17 17:19:30;;;;;;;10.45;4.95;;;;;;;26.57;44.34;100356.34;10402870;28;20163;-61
2021/07/17 17:24:32;;;;;;;12.60;5.57;;;;;;;26.61;44.29;100356.81;10405297;28;20101;-61
2021/07/17 17:29:34;;;;;;;10.63;5.93;;;;;;;26.27;44.05;100354.63;10409927;28;20049;-61
2021/07/17 17:34:36;;;;;;;10.30;5.05;;;;;;;26.32;44.03;100356.78;10410129;28;20057;-60
2021/07/17 17:39:38;;;;;;;10.52;4.88;;;;;;;26.32;44.20;100360.25;10409088;28;20050;-60
2021/07/17 17:44:40;;;;;;;11.90;4.45;;;;;;;26.15;43.26;100356.09;10409539;28;20049;-60
2021/07/17 17:49:42;;;;;;;9.85;4.03;;;;;;;26.00;42.37;100355.22;10409951;28;20053;-61
2021/07/17 17:54:44;;;;;;;7.22;3.63;;;;;;;25.89;42.12;100361.78;10407228;28;20148;-61
2021/07/17 17:59:46;;;;;;;6.97;3.35;;;;;;;25.84;42.32;100372.22;10409243;28;20055;-61
2021/07/17 18:05:11;;;;;;;7.47;2.90;;;;;;;25.76;42.07;100366.94;10409263;28;20076;-60
2021/07/17 18:10:14;;;;;;;5.68;2.90;;;;;;;25.60;42.55;100377.75;10394638;28;20633;-60
2021/07/17 18:15:17;;;;;;;9.02;2.78;;;;;;;25.48;42.47;100381.84;10407612;28;20383;-60
2021/07/17 18:20:25;;;;;;;6.88;2.72;;;;;;;25.36;42.38;100385.09;10408790;28;20042;-61
2021/07/17 18:25:30;;;;;;;11.35;3.20;;;;;;;25.20;42.47;100391.34;10366801;28;20081;-60
2021/07/17 18:30:32;;;;;;;9.02;2.50;;;;;;;25.00;42.67;100392.75;10368591;28;20065;-60
2021/07/17 18:35:35;;;;;;;5.57;2.28;;;;;;;24.76;42.40;100385.66;10423669;28;20085;-60
2021/07/17 18:40:36;;;;;;;14.93;3.20;;;;;;;24.66;44.18;100394.84;10406821;28;20132;-60
2021/07/17 18:45:38;;;;;;;7.47;2.30;;;;;;;24.34;44.06;100395.72;10406903;28;20056;-60
2021/07/17 18:50:40;;;;;;;7.28;2.75;;;;;;;24.25;46.08;100402.91;10407680;28;20049;-60
2021/07/17 18:55:42;;;;;;;10.55;2.92;;;;;;;24.10;45.99;100403.75;10406585;28;20045;-60
2021/07/17 19:00:43;;;;;;;8.40;2.47;;;;;;;23.91;46.21;100401.38;10407483;28;20047;-60
2021/07/17 19:05:45;;;;;;;5.00;2.40;;;;;;;23.77;46.58;100404.69;10405817;28;20132;-60
2021/07/17 19:10:48;;;;;;;7.15;2.63;;;;;;;23.65;47.02;100409.53;10406027;28;20045;-60
2021/07/17 19:15:50;;;;;;;7.88;2.75;;;;;;;23.52;47.19;100408.31;10406361;28;20472;-60
2021/07/17 19:20:52;;;;;;;8.50;4.00;;;;;;;23.27;47.96;100415.38;10406313;28;20398;-59
2021/07/17 19:25:53;;;;;;;10.32;3.47;;;;;;;23.06;48.43;100406.97;10403803;28;20045;-60
2021/07/17 19:30:55;;;;;;;12.65;3.00;;;;;;;22.90;49.34;100421.06;10405276;28;20081;-59
2021/07/17 19:35:57;;;;;;;9.02;3.42;;;;;;;22.75;49.91;100427.97;10404908;28;20041;-60
2021/07/17 19:40:59;;;;;;;9.15;3.10;;;;;;;22.61;51.00;100429.34;10404767;28;20140;-59
2021/07/17 19:46:01;;;;;;;10.10;3.10;;;;;;;22.52;50.61;100443.59;10403586;28;20065;-59
2021/07/17 19:51:02;;;;;;;5.65;2.47;;;;;;;22.43;50.94;100441.03;10405075;28;20136;-59
2021/07/17 19:56:04;;;;;;;6.65;2.92;;;;;;;22.33;51.29;100445.63;10404618;28;20136;-59
2021/07/17 20:01:08;;;;;;;9.55;2.60;;;;;;;22.21;52.09;100453.00;10404474;28;20109;-59
2021/07/17 20:06:10;;;;;;;7.93;3.10;;;;;;;22.07;52.31;100452.72;10388354;28;20057;-59
2021/07/17 20:11:11;;;;;;;9.65;2.50;;;;;;;21.90;52.55;100451.72;10400684;28;20402;-59
2021/07/17 20:16:14;;;;;;;13.70;2.78;;;;;;;21.76;53.03;100462.88;10390840;28;20045;-59
2021/07/17 20:21:16;;;;;;;6.78;2.83;;;;;;;21.61;53.04;100464.34;10382564;28;20391;-59
2021/07/17 20:26:20;;;;;;;8.50;2.78;;;;;;;21.46;53.32;100469.34;10386822;28;20053;-59
2021/07/17 20:31:22;;;;;;;7.75;2.40;;;;;;;21.37;53.59;100464.91;10411831;28;20092;-59
2021/07/17 20:36:24;;;;;;;8.52;2.60;;;;;;;21.29;53.67;100470.09;10379985;28;20382;-59
2021/07/17 20:41:27;;;;;;;9.75;2.92;;;;;;;21.15;54.03;100483.88;10388541;28;20109;-59
2021/07/17 20:46:32;;;;;;;7.53;2.92;;;;;;;21.04;54.48;100470.75;10374436;28;20096;-60
2021/07/17 20:51:35;;;;;;;7.03;2.70;;;;;;;20.97;54.55;100480.28;10399335;28;20107;-59
2021/07/17 20:56:37;;;;;;;8.65;3.10;;;;;;;20.85;54.40;100479.63;10405324;28;20561;-59
2021/07/17 21:01:38;;;;;;;9.18;2.72;;;;;;;20.74;55.18;100484.28;10395359;28;20048;-59
2021/07/17 21:06:40;;;;;;;7.13;2.90;;;;;;;20.69;55.30;100471.41;10409477;28;20051;-59
2021/07/17 21:11:42;;;;;;;13.82;3.20;;;;;;;20.53;56.18;100481.75;10409707;28;20535;-59
2021/07/17 21:16:44;;;;;;;10.38;2.85;;;;;;;20.35;56.52;100479.94;10410480;28;20076;-59
2021/07/17 21:21:46;;;;;;;6.43;2.80;;;;;;;20.21;57.18;100483.88;10409344;28;20457;-59
2021/07/17 21:26:48;;;;;;;7.05;2.85;;;;;;;20.09;57.35;100491.13;10408754;28;20136;-59
2021/07/17 21:31:49;;;;;;;6.97;2.90;;;;;;;19.90;57.71;100488.47;10409456;28;20481;-59
2021/07/17 21:36:51;;;;;;;7.38;3.20;;;;;;;19.78;58.32;100488.69;10408679;28;20057;-59
2021/07/17 21:41:53;;;;;;;9.52;3.05;;;;;;;19.59;58.29;100484.16;10408546;28;20045;-59
2021/07/17 21:46:55;;;;;;;10.82;3.20;;;;;;;19.43;58.72;100490.00;10409559;28;20140;-59
2021/07/17 21:51:57;;;;;;;8.35;2.80;;;;;;;19.30;59.06;100494.69;10407799;28;20056;-59
2021/07/17 21:56:59;;;;;;;6.50;2.78;;;;;;;19.11;59.22;100494.59;10423985;28;20075;-59
2021/07/17 22:02:01;;;;;;;6.15;2.80;;;;;;;18.98;59.78;100485.97;10408391;28;20426;-59
2021/07/17 22:07:04;;;;;;;9.00;3.00;;;;;;;18.89;59.90;100500.00;10407897;28;20041;-59
2021/07/17 22:12:06;;;;;;;8.55;3.00;;;;;;;18.83;60.15;100494.41;10377022;28;20042;-59
2021/07/17 22:17:08;;;;;;;10.77;3.45;;;;;;;18.78;59.91;100497.44;10407922;28;20152;-59
2021/07/17 22:22:10;;;;;;;7.38;2.97;;;;;;;18.80;60.22;100494.66;10406642;28;20571;-59
2021/07/17 22:27:12;;;;;;;9.88;3.40;;;;;;;18.60;60.65;100505.16;10407902;28;20529;-59
2021/07/17 22:32:13;;;;;;;6.70;3.05;;;;;;;18.25;61.58;100499.28;10407979;28;20060;-59
2021/07/17 22:37:15;;;;;;;7.82;2.80;;;;;;;18.17;61.59;100491.13;10407129;28;20060;-59
2021/07/17 22:42:17;;;;;;;8.35;3.00;;;;;;;18.12;61.33;100497.72;10407034;28;20045;-59
2021/07/17 22:47:18;;;;;;;12.48;2.70;;;;;;;18.15;61.20;100489.56;10406545;28;20561;-59
2021/07/17 22:52:20;;;;;;;10.00;2.65;;;;;;;18.22;60.84;100486.28;10407637;28;20053;-59
2021/07/17 22:57:22;;;;;;;7.55;3.20;;;;;;;18.09;61.68;100495.34;10406639;28;20077;-59